sensor_id;sensor_type;location;lat;lon;timestamp;temperature;humidity
29453;DHT22;16424;50.956;5.320;2023-04-24T00:01:32;10.60;99.90
29453;DHT22;16424;50.956;5.320;2023-04-24T00:03:59;10.60;99.90
29453;DHT22;16424;50.956;5.320;2023-04-24T00:06:26;10.40;99.90
29453;DHT22;16424;50.956;5.320;2023-04-24T00:09:01;10.30;99.90
29453;DHT22;16424;50.956;5.320;2023-04-24T00:11:26;10.30;99.90
29453;DHT22;16424;50.956;5.320;2023-04-24T00:13:52;10.20;99.90
29453;DHT22;16424;50.956;5.320;2023-04-24T00:16:18;10.30;99.90
29453;DHT22;16424;50.956;5.320;2023-04-24T00:18:43;10.30;99.90
29453;DHT22;16424;50.956;5.320;2023-04-24T00:21:10;10.50;99.90
29453;DHT22;16424;50.956;5.320;2023-04-24T00:23:36;10.50;99.90
29453;DHT22;16424;50.956;5.320;2023-04-24T00:26:02;10.50;99.90
29453;DHT22;16424;50.956;5.320;2023-04-24T00:28:27;10.40;99.90
29453;DHT22;16424;50.956;5.320;2023-04-24T00:30:53;10.50;99.90
29453;DHT22;16424;50.956;5.320;2023-04-24T00:33:19;10.50;99.90
29453;DHT22;16424;50.956;5.320;2023-04-24T00:35:45;10.60;99.90
29453;DHT22;16424;50.956;5.320;2023-04-24T00:38:11;10.60;99.90
29453;DHT22;16424;50.956;5.320;2023-04-24T00:40:36;10.40;99.90
29453;DHT22;16424;50.956;5.320;2023-04-24T00:43:02;10.40;99.90
29453;DHT22;16424;50.956;5.320;2023-04-24T00:45:28;10.40;99.90
29453;DHT22;16424;50.956;5.320;2023-04-24T00:47:53;10.30;99.90
29453;DHT22;16424;50.956;5.320;2023-04-24T00:50:21;10.20;99.90
29453;DHT22;16424;50.956;5.320;2023-04-24T00:52:46;10.30;99.90
29453;DHT22;16424;50.956;5.320;2023-04-24T00:55:12;10.40;99.90
29453;DHT22;16424;50.956;5.320;2023-04-24T00:57:38;10.40;99.90
29453;DHT22;16424;50.956;5.320;2023-04-24T01:00:06;10.40;99.90
29453;DHT22;16424;50.956;5.320;2023-04-24T01:02:39;10.20;99.90
29453;DHT22;16424;50.956;5.320;2023-04-24T01:05:07;10.30;99.90
29453;DHT22;16424;50.956;5.320;2023-04-24T01:07:34;10.30;99.90
29453;DHT22;16424;50.956;5.320;2023-04-24T01:10:00;10.40;99.90
29453;DHT22;16424;50.956;5.320;2023-04-24T01:12:25;10.30;99.90
29453;DHT22;16424;50.956;5.320;2023-04-24T01:14:51;10.40;99.90
29453;DHT22;16424;50.956;5.320;2023-04-24T01:17:17;10.50;99.90
29453;DHT22;16424;50.956;5.320;2023-04-24T01:19:42;10.40;99.90
29453;DHT22;16424;50.956;5.320;2023-04-24T01:22:14;10.40;99.90
29453;DHT22;16424;50.956;5.320;2023-04-24T01:24:41;10.30;99.90
29453;DHT22;16424;50.956;5.320;2023-04-24T01:27:07;10.30;99.90
29453;DHT22;16424;50.956;5.320;2023-04-24T01:29:34;10.20;99.90
29453;DHT22;16424;50.956;5.320;2023-04-24T01:32:00;10.30;99.90
29453;DHT22;16424;50.956;5.320;2023-04-24T01:34:26;10.50;99.90
29453;DHT22;16424;50.956;5.320;2023-04-24T01:36:52;10.40;99.90
29453;DHT22;16424;50.956;5.320;2023-04-24T01:39:18;10.50;99.90
29453;DHT22;16424;50.956;5.320;2023-04-24T01:41:46;10.40;99.90
29453;DHT22;16424;50.956;5.320;2023-04-24T01:44:12;10.30;99.90
29453;DHT22;16424;50.956;5.320;2023-04-24T01:46:38;10.30;99.90
29453;DHT22;16424;50.956;5.320;2023-04-24T01:49:03;10.30;99.90
29453;DHT22;16424;50.956;5.320;2023-04-24T01:51:29;10.30;99.90
29453;DHT22;16424;50.956;5.320;2023-04-24T01:53:55;10.40;99.90
29453;DHT22;16424;50.956;5.320;2023-04-24T01:56:22;10.40;99.90
29453;DHT22;16424;50.956;5.320;2023-04-24T01:58:49;10.40;99.90
29453;DHT22;16424;50.956;5.320;2023-04-24T02:01:19;10.40;99.90
29453;DHT22;16424;50.956;5.320;2023-04-24T02:03:45;10.30;99.90
29453;DHT22;16424;50.956;5.320;2023-04-24T02:06:11;10.30;99.90
29453;DHT22;16424;50.956;5.320;2023-04-24T02:08:37;10.40;99.90
29453;DHT22;16424;50.956;5.320;2023-04-24T02:11:02;10.20;99.90
29453;DHT22;16424;50.956;5.320;2023-04-24T02:13:28;10.10;99.90
29453;DHT22;16424;50.956;5.320;2023-04-24T02:15:54;10.10;99.90
29453;DHT22;16424;50.956;5.320;2023-04-24T02:18:20;10.10;99.90
29453;DHT22;16424;50.956;5.320;2023-04-24T02:20:46;10.00;99.90
29453;DHT22;16424;50.956;5.320;2023-04-24T02:23:11;9.90;99.90
29453;DHT22;16424;50.956;5.320;2023-04-24T02:25:38;10.00;99.90
29453;DHT22;16424;50.956;5.320;2023-04-24T02:28:04;10.00;99.90
29453;DHT22;16424;50.956;5.320;2023-04-24T02:30:30;10.00;99.90
29453;DHT22;16424;50.956;5.320;2023-04-24T02:32:56;10.00;99.90
29453;DHT22;16424;50.956;5.320;2023-04-24T02:35:22;9.90;99.90
29453;DHT22;16424;50.956;5.320;2023-04-24T02:37:47;10.00;99.90
29453;DHT22;16424;50.956;5.320;2023-04-24T02:40:13;10.10;99.90
29453;DHT22;16424;50.956;5.320;2023-04-24T02:42:39;10.00;99.90
29453;DHT22;16424;50.956;5.320;2023-04-24T02:45:05;9.90;99.90
29453;DHT22;16424;50.956;5.320;2023-04-24T02:47:30;9.80;99.90
29453;DHT22;16424;50.956;5.320;2023-04-24T02:49:56;9.80;99.90
29453;DHT22;16424;50.956;5.320;2023-04-24T02:52:22;9.90;99.90
29453;DHT22;16424;50.956;5.320;2023-04-24T02:54:47;9.90;99.90
29453;DHT22;16424;50.956;5.320;2023-04-24T02:57:13;9.80;99.90
29453;DHT22;16424;50.956;5.320;2023-04-24T02:59:38;9.80;99.90
29453;DHT22;16424;50.956;5.320;2023-04-24T03:02:04;9.70;99.90
29453;DHT22;16424;50.956;5.320;2023-04-24T03:04:31;9.80;99.90
29453;DHT22;16424;50.956;5.320;2023-04-24T03:06:57;9.80;99.90
29453;DHT22;16424;50.956;5.320;2023-04-24T03:09:23;9.70;99.90
29453;DHT22;16424;50.956;5.320;2023-04-24T03:11:49;9.80;99.90
29453;DHT22;16424;50.956;5.320;2023-04-24T03:14:15;9.70;99.90
29453;DHT22;16424;50.956;5.320;2023-04-24T03:16:41;9.60;99.90
29453;DHT22;16424;50.956;5.320;2023-04-24T03:19:07;9.50;99.90
29453;DHT22;16424;50.956;5.320;2023-04-24T03:21:33;9.50;99.90
29453;DHT22;16424;50.956;5.320;2023-04-24T03:23:59;9.50;99.90
29453;DHT22;16424;50.956;5.320;2023-04-24T03:26:24;9.40;99.90
29453;DHT22;16424;50.956;5.320;2023-04-24T03:28:50;9.40;99.90
29453;DHT22;16424;50.956;5.320;2023-04-24T03:31:16;9.50;99.90
29453;DHT22;16424;50.956;5.320;2023-04-24T03:33:42;9.50;99.90
29453;DHT22;16424;50.956;5.320;2023-04-24T03:36:08;9.50;99.90
29453;DHT22;16424;50.956;5.320;2023-04-24T03:38:33;9.40;99.90
29453;DHT22;16424;50.956;5.320;2023-04-24T03:40:59;9.40;99.90
29453;DHT22;16424;50.956;5.320;2023-04-24T03:43:25;9.30;99.90
29453;DHT22;16424;50.956;5.320;2023-04-24T03:45:52;9.30;99.90
29453;DHT22;16424;50.956;5.320;2023-04-24T03:48:18;9.20;99.90
29453;DHT22;16424;50.956;5.320;2023-04-24T03:50:43;9.30;99.90
29453;DHT22;16424;50.956;5.320;2023-04-24T03:53:09;9.30;99.90
29453;DHT22;16424;50.956;5.320;2023-04-24T03:55:35;9.30;99.90
29453;DHT22;16424;50.956;5.320;2023-04-24T03:58:01;9.30;99.90
29453;DHT22;16424;50.956;5.320;2023-04-24T04:00:26;9.40;99.90
29453;DHT22;16424;50.956;5.320;2023-04-24T04:02:52;9.50;99.90
29453;DHT22;16424;50.956;5.320;2023-04-24T04:05:18;9.40;99.90
29453;DHT22;16424;50.956;5.320;2023-04-24T04:07:44;9.50;99.90
29453;DHT22;16424;50.956;5.320;2023-04-24T04:10:10;9.50;99.90
29453;DHT22;16424;50.956;5.320;2023-04-24T04:12:35;9.50;99.90
29453;DHT22;16424;50.956;5.320;2023-04-24T04:15:01;9.40;99.90
29453;DHT22;16424;50.956;5.320;2023-04-24T04:17:27;9.40;99.90
29453;DHT22;16424;50.956;5.320;2023-04-24T04:19:52;9.50;99.90
29453;DHT22;16424;50.956;5.320;2023-04-24T04:22:18;9.50;99.90
29453;DHT22;16424;50.956;5.320;2023-04-24T04:24:43;9.40;99.90
29453;DHT22;16424;50.956;5.320;2023-04-24T04:27:09;9.20;99.90
29453;DHT22;16424;50.956;5.320;2023-04-24T04:29:36;9.20;99.90
29453;DHT22;16424;50.956;5.320;2023-04-24T04:32:02;9.10;99.90
29453;DHT22;16424;50.956;5.320;2023-04-24T04:34:27;9.10;99.90
29453;DHT22;16424;50.956;5.320;2023-04-24T04:36:55;9.20;99.90
29453;DHT22;16424;50.956;5.320;2023-04-24T04:39:20;9.10;99.90
29453;DHT22;16424;50.956;5.320;2023-04-24T04:41:46;9.00;99.90
29453;DHT22;16424;50.956;5.320;2023-04-24T04:44:14;9.00;99.90
29453;DHT22;16424;50.956;5.320;2023-04-24T04:46:40;9.00;99.90
29453;DHT22;16424;50.956;5.320;2023-04-24T04:49:06;9.10;99.90
29453;DHT22;16424;50.956;5.320;2023-04-24T04:51:34;9.00;99.90
29453;DHT22;16424;50.956;5.320;2023-04-24T04:54:00;8.90;99.90
29453;DHT22;16424;50.956;5.320;2023-04-24T04:56:25;8.90;99.90
29453;DHT22;16424;50.956;5.320;2023-04-24T04:58:51;8.90;99.90
29453;DHT22;16424;50.956;5.320;2023-04-24T05:01:17;8.90;99.90
29453;DHT22;16424;50.956;5.320;2023-04-24T05:03:43;8.90;99.90
29453;DHT22;16424;50.956;5.320;2023-04-24T05:06:08;8.90;99.90
29453;DHT22;16424;50.956;5.320;2023-04-24T05:08:34;8.80;99.90
29453;DHT22;16424;50.956;5.320;2023-04-24T05:11:00;8.80;99.90
29453;DHT22;16424;50.956;5.320;2023-04-24T05:13:25;8.80;99.90
29453;DHT22;16424;50.956;5.320;2023-04-24T05:15:51;8.80;99.90
29453;DHT22;16424;50.956;5.320;2023-04-24T05:18:17;8.80;99.90
29453;DHT22;16424;50.956;5.320;2023-04-24T05:20:43;8.80;99.90
29453;DHT22;16424;50.956;5.320;2023-04-24T05:23:09;8.80;99.90
29453;DHT22;16424;50.956;5.320;2023-04-24T05:25:35;8.90;99.90
29453;DHT22;16424;50.956;5.320;2023-04-24T05:28:01;8.90;99.90
29453;DHT22;16424;50.956;5.320;2023-04-24T05:30:27;9.00;99.90
29453;DHT22;16424;50.956;5.320;2023-04-24T05:32:53;9.10;99.90
29453;DHT22;16424;50.956;5.320;2023-04-24T05:35:19;9.00;99.90
29453;DHT22;16424;50.956;5.320;2023-04-24T05:37:44;9.00;99.90
29453;DHT22;16424;50.956;5.320;2023-04-24T05:40:10;9.00;99.90
29453;DHT22;16424;50.956;5.320;2023-04-24T05:42:36;8.90;99.90
29453;DHT22;16424;50.956;5.320;2023-04-24T05:45:02;8.90;99.90
29453;DHT22;16424;50.956;5.320;2023-04-24T05:47:28;8.90;99.90
29453;DHT22;16424;50.956;5.320;2023-04-24T05:49:54;8.80;99.90
29453;DHT22;16424;50.956;5.320;2023-04-24T05:52:20;8.90;99.90
29453;DHT22;16424;50.956;5.320;2023-04-24T05:54:45;8.80;99.90
29453;DHT22;16424;50.956;5.320;2023-04-24T05:57:11;8.80;99.90
29453;DHT22;16424;50.956;5.320;2023-04-24T05:59:37;8.80;99.90
29453;DHT22;16424;50.956;5.320;2023-04-24T06:02:06;8.80;99.90
29453;DHT22;16424;50.956;5.320;2023-04-24T06:04:32;8.70;99.90
29453;DHT22;16424;50.956;5.320;2023-04-24T06:06:59;8.70;99.90
29453;DHT22;16424;50.956;5.320;2023-04-24T06:09:25;8.60;99.90
29453;DHT22;16424;50.956;5.320;2023-04-24T06:11:51;8.60;99.90
29453;DHT22;16424;50.956;5.320;2023-04-24T06:14:19;8.70;99.90
29453;DHT22;16424;50.956;5.320;2023-04-24T06:16:45;8.70;99.90
29453;DHT22;16424;50.956;5.320;2023-04-24T06:19:10;8.70;99.90
29453;DHT22;16424;50.956;5.320;2023-04-24T06:21:36;8.60;99.90
29453;DHT22;16424;50.956;5.320;2023-04-24T06:24:02;8.60;99.90
29453;DHT22;16424;50.956;5.320;2023-04-24T06:26:29;8.60;99.90
29453;DHT22;16424;50.956;5.320;2023-04-24T06:28:54;8.70;99.90
29453;DHT22;16424;50.956;5.320;2023-04-24T06:31:20;8.70;99.90
29453;DHT22;16424;50.956;5.320;2023-04-24T06:33:48;8.80;99.90
29453;DHT22;16424;50.956;5.320;2023-04-24T06:36:13;8.70;99.90
29453;DHT22;16424;50.956;5.320;2023-04-24T06:38:39;8.70;99.90
29453;DHT22;16424;50.956;5.320;2023-04-24T06:41:05;8.60;99.90
29453;DHT22;16424;50.956;5.320;2023-04-24T06:43:31;8.60;99.90
29453;DHT22;16424;50.956;5.320;2023-04-24T06:45:58;8.60;99.90
29453;DHT22;16424;50.956;5.320;2023-04-24T06:48:24;8.60;99.90
29453;DHT22;16424;50.956;5.320;2023-04-24T06:50:51;8.70;99.90
29453;DHT22;16424;50.956;5.320;2023-04-24T06:53:17;8.60;99.90
29453;DHT22;16424;50.956;5.320;2023-04-24T06:55:43;8.60;99.90
29453;DHT22;16424;50.956;5.320;2023-04-24T06:58:10;8.60;99.90
29453;DHT22;16424;50.956;5.320;2023-04-24T07:00:36;8.60;99.90
29453;DHT22;16424;50.956;5.320;2023-04-24T07:03:02;8.70;99.90
29453;DHT22;16424;50.956;5.320;2023-04-24T07:05:28;8.70;99.90
29453;DHT22;16424;50.956;5.320;2023-04-24T07:07:54;8.70;99.90
29453;DHT22;16424;50.956;5.320;2023-04-24T07:10:20;8.70;99.90
29453;DHT22;16424;50.956;5.320;2023-04-24T07:12:46;8.70;99.90
29453;DHT22;16424;50.956;5.320;2023-04-24T07:15:12;8.80;99.90
29453;DHT22;16424;50.956;5.320;2023-04-24T07:17:38;8.80;99.90
29453;DHT22;16424;50.956;5.320;2023-04-24T07:20:04;8.80;99.90
29453;DHT22;16424;50.956;5.320;2023-04-24T07:22:30;8.90;99.90
29453;DHT22;16424;50.956;5.320;2023-04-24T07:24:56;9.00;99.90
29453;DHT22;16424;50.956;5.320;2023-04-24T07:27:22;9.00;99.90
29453;DHT22;16424;50.956;5.320;2023-04-24T07:29:47;9.10;99.90
29453;DHT22;16424;50.956;5.320;2023-04-24T07:32:13;9.10;99.90
29453;DHT22;16424;50.956;5.320;2023-04-24T07:34:39;9.20;99.90
29453;DHT22;16424;50.956;5.320;2023-04-24T07:37:04;9.20;99.90
29453;DHT22;16424;50.956;5.320;2023-04-24T07:39:30;9.00;99.90
29453;DHT22;16424;50.956;5.320;2023-04-24T07:41:56;9.00;99.90
29453;DHT22;16424;50.956;5.320;2023-04-24T07:44:22;8.90;99.90
29453;DHT22;16424;50.956;5.320;2023-04-24T07:46:48;9.00;99.90
29453;DHT22;16424;50.956;5.320;2023-04-24T07:49:13;9.10;99.90
29453;DHT22;16424;50.956;5.320;2023-04-24T07:51:39;9.10;99.90
29453;DHT22;16424;50.956;5.320;2023-04-24T07:54:05;9.10;99.90
29453;DHT22;16424;50.956;5.320;2023-04-24T07:56:33;9.10;99.90
29453;DHT22;16424;50.956;5.320;2023-04-24T07:59:00;9.10;99.90
29453;DHT22;16424;50.956;5.320;2023-04-24T08:01:26;9.10;99.90
29453;DHT22;16424;50.956;5.320;2023-04-24T08:03:52;9.10;99.90
29453;DHT22;16424;50.956;5.320;2023-04-24T08:06:18;9.00;99.90
29453;DHT22;16424;50.956;5.320;2023-04-24T08:08:43;8.90;99.90
29453;DHT22;16424;50.956;5.320;2023-04-24T08:11:09;8.90;99.90
29453;DHT22;16424;50.956;5.320;2023-04-24T08:13:35;9.00;99.90
29453;DHT22;16424;50.956;5.320;2023-04-24T08:16:00;9.00;99.90
29453;DHT22;16424;50.956;5.320;2023-04-24T08:18:26;9.10;99.90
29453;DHT22;16424;50.956;5.320;2023-04-24T08:20:52;9.10;99.90
29453;DHT22;16424;50.956;5.320;2023-04-24T08:23:18;9.20;99.90
29453;DHT22;16424;50.956;5.320;2023-04-24T08:25:43;9.30;99.90
29453;DHT22;16424;50.956;5.320;2023-04-24T08:28:09;9.20;99.90
29453;DHT22;16424;50.956;5.320;2023-04-24T08:30:36;9.20;99.90
29453;DHT22;16424;50.956;5.320;2023-04-24T08:33:02;9.40;99.90
29453;DHT22;16424;50.956;5.320;2023-04-24T08:35:28;9.50;99.90
29453;DHT22;16424;50.956;5.320;2023-04-24T08:37:53;9.70;99.90
29453;DHT22;16424;50.956;5.320;2023-04-24T08:40:22;9.70;99.90
29453;DHT22;16424;50.956;5.320;2023-04-24T08:42:54;9.70;99.90
29453;DHT22;16424;50.956;5.320;2023-04-24T08:45:21;9.80;99.90
29453;DHT22;16424;50.956;5.320;2023-04-24T08:47:47;9.90;99.90
29453;DHT22;16424;50.956;5.320;2023-04-24T08:50:14;10.10;99.90
29453;DHT22;16424;50.956;5.320;2023-04-24T08:52:42;10.30;99.90
29453;DHT22;16424;50.956;5.320;2023-04-24T08:55:08;10.40;99.90
29453;DHT22;16424;50.956;5.320;2023-04-24T08:57:33;10.60;99.90
29453;DHT22;16424;50.956;5.320;2023-04-24T09:00:01;10.70;99.90
29453;DHT22;16424;50.956;5.320;2023-04-24T09:02:27;10.60;99.90
29453;DHT22;16424;50.956;5.320;2023-04-24T09:04:55;10.80;99.90
29453;DHT22;16424;50.956;5.320;2023-04-24T09:07:24;10.50;99.90
29453;DHT22;16424;50.956;5.320;2023-04-24T09:09:51;10.50;99.90
29453;DHT22;16424;50.956;5.320;2023-04-24T09:12:18;10.30;99.90
29453;DHT22;16424;50.956;5.320;2023-04-24T09:14:45;10.20;99.90
29453;DHT22;16424;50.956;5.320;2023-04-24T09:17:12;10.10;99.90
29453;DHT22;16424;50.956;5.320;2023-04-24T09:19:37;9.80;99.90
29453;DHT22;16424;50.956;5.320;2023-04-24T09:22:07;9.90;99.90
29453;DHT22;16424;50.956;5.320;2023-04-24T09:24:34;9.60;99.90
29453;DHT22;16424;50.956;5.320;2023-04-24T09:27:01;9.60;99.90
29453;DHT22;16424;50.956;5.320;2023-04-24T09:29:27;9.60;99.90
29453;DHT22;16424;50.956;5.320;2023-04-24T09:31:53;9.90;99.90
29453;DHT22;16424;50.956;5.320;2023-04-24T09:34:23;10.10;99.90
29453;DHT22;16424;50.956;5.320;2023-04-24T09:36:50;10.20;99.90
29453;DHT22;16424;50.956;5.320;2023-04-24T09:39:16;10.40;99.90
29453;DHT22;16424;50.956;5.320;2023-04-24T09:41:47;11.00;99.90
29453;DHT22;16424;50.956;5.320;2023-04-24T09:44:18;11.50;99.90
29453;DHT22;16424;50.956;5.320;2023-04-24T09:46:54;11.90;99.90
29453;DHT22;16424;50.956;5.320;2023-04-24T09:49:26;12.20;99.90
29453;DHT22;16424;50.956;5.320;2023-04-24T09:51:52;12.20;99.90
29453;DHT22;16424;50.956;5.320;2023-04-24T09:54:27;12.10;99.90
29453;DHT22;16424;50.956;5.320;2023-04-24T09:56:54;11.80;99.90
29453;DHT22;16424;50.956;5.320;2023-04-24T09:59:20;11.80;99.90
29453;DHT22;16424;50.956;5.320;2023-04-24T10:01:46;12.00;99.90
29453;DHT22;16424;50.956;5.320;2023-04-24T10:04:22;12.10;99.90
29453;DHT22;16424;50.956;5.320;2023-04-24T10:06:50;12.20;99.90
29453;DHT22;16424;50.956;5.320;2023-04-24T10:09:17;12.20;99.90
29453;DHT22;16424;50.956;5.320;2023-04-24T10:11:46;12.10;99.90
29453;DHT22;16424;50.956;5.320;2023-04-24T10:14:14;12.30;99.90
29453;DHT22;16424;50.956;5.320;2023-04-24T10:16:40;12.20;99.90
29453;DHT22;16424;50.956;5.320;2023-04-24T10:19:07;12.10;99.90
29453;DHT22;16424;50.956;5.320;2023-04-24T10:21:33;11.70;99.90
29453;DHT22;16424;50.956;5.320;2023-04-24T10:23:59;11.50;99.90
29453;DHT22;16424;50.956;5.320;2023-04-24T10:26:29;11.30;99.90
29453;DHT22;16424;50.956;5.320;2023-04-24T10:28:57;11.10;99.90
29453;DHT22;16424;50.956;5.320;2023-04-24T10:31:24;11.00;99.90
29453;DHT22;16424;50.956;5.320;2023-04-24T10:33:51;11.30;99.90
29453;DHT22;16424;50.956;5.320;2023-04-24T10:36:18;11.50;99.90
29453;DHT22;16424;50.956;5.320;2023-04-24T10:38:45;11.70;99.90
29453;DHT22;16424;50.956;5.320;2023-04-24T10:41:13;12.10;99.90
29453;DHT22;16424;50.956;5.320;2023-04-24T10:43:45;12.50;99.90
29453;DHT22;16424;50.956;5.320;2023-04-24T10:46:19;12.60;99.90
29453;DHT22;16424;50.956;5.320;2023-04-24T10:48:53;12.70;99.90
29453;DHT22;16424;50.956;5.320;2023-04-24T10:51:22;12.90;99.90
29453;DHT22;16424;50.956;5.320;2023-04-24T10:53:50;12.40;99.90
29453;DHT22;16424;50.956;5.320;2023-04-24T10:56:16;12.10;99.90
29453;DHT22;16424;50.956;5.320;2023-04-24T10:58:43;11.80;99.90
29453;DHT22;16424;50.956;5.320;2023-04-24T11:01:26;11.70;99.90
29453;DHT22;16424;50.956;5.320;2023-04-24T11:03:57;11.60;99.90
29453;DHT22;16424;50.956;5.320;2023-04-24T11:06:36;11.50;99.90
29453;DHT22;16424;50.956;5.320;2023-04-24T11:09:07;11.50;99.90
29453;DHT22;16424;50.956;5.320;2023-04-24T11:11:34;11.50;99.90
29453;DHT22;16424;50.956;5.320;2023-04-24T11:19:03;11.60;99.90
29453;DHT22;16424;50.956;5.320;2023-04-24T11:21:40;11.50;99.90
29453;DHT22;16424;50.956;5.320;2023-04-24T11:27:12;11.10;99.90
29453;DHT22;16424;50.956;5.320;2023-04-24T11:35:21;12.00;99.90
29453;DHT22;16424;50.956;5.320;2023-04-24T11:37:52;12.40;99.90
29453;DHT22;16424;50.956;5.320;2023-04-24T11:40:21;12.40;99.90
29453;DHT22;16424;50.956;5.320;2023-04-24T11:42:52;12.10;99.90
29453;DHT22;16424;50.956;5.320;2023-04-24T11:47:50;12.00;99.90
29453;DHT22;16424;50.956;5.320;2023-04-24T11:50:17;11.80;99.90
29453;DHT22;16424;50.956;5.320;2023-04-24T11:52:46;11.70;99.90
29453;DHT22;16424;50.956;5.320;2023-04-24T11:57:47;11.80;99.90
29453;DHT22;16424;50.956;5.320;2023-04-24T12:00:32;12.00;99.90
29453;DHT22;16424;50.956;5.320;2023-04-24T12:03:10;12.20;99.90
29453;DHT22;16424;50.956;5.320;2023-04-24T12:05:37;12.40;99.90
29453;DHT22;16424;50.956;5.320;2023-04-24T12:08:03;12.40;99.90
29453;DHT22;16424;50.956;5.320;2023-04-24T12:10:31;12.50;99.90
29453;DHT22;16424;50.956;5.320;2023-04-24T12:12:58;12.90;99.90
29453;DHT22;16424;50.956;5.320;2023-04-24T12:15:24;13.10;99.90
29453;DHT22;16424;50.956;5.320;2023-04-24T12:17:52;13.20;99.90
29453;DHT22;16424;50.956;5.320;2023-04-24T12:20:23;13.00;99.90
29453;DHT22;16424;50.956;5.320;2023-04-24T12:22:54;12.70;99.90
29453;DHT22;16424;50.956;5.320;2023-04-24T12:25:24;12.80;99.90
29453;DHT22;16424;50.956;5.320;2023-04-24T12:30:29;12.90;99.90
29453;DHT22;16424;50.956;5.320;2023-04-24T12:32:57;12.80;99.90
29453;DHT22;16424;50.956;5.320;2023-04-24T12:35:24;12.50;99.90
29453;DHT22;16424;50.956;5.320;2023-04-24T12:37:51;12.60;99.90
29453;DHT22;16424;50.956;5.320;2023-04-24T12:40:18;12.30;99.90
29453;DHT22;16424;50.956;5.320;2023-04-24T12:42:46;12.40;99.90
29453;DHT22;16424;50.956;5.320;2023-04-24T12:45:12;12.40;99.90
29453;DHT22;16424;50.956;5.320;2023-04-24T12:47:39;12.50;99.90
29453;DHT22;16424;50.956;5.320;2023-04-24T12:50:06;12.60;99.90
29453;DHT22;16424;50.956;5.320;2023-04-24T12:52:32;12.70;99.90
29453;DHT22;16424;50.956;5.320;2023-04-24T12:54:59;12.70;99.90
29453;DHT22;16424;50.956;5.320;2023-04-24T12:57:26;12.80;99.90
29453;DHT22;16424;50.956;5.320;2023-04-24T12:59:59;12.70;99.90
29453;DHT22;16424;50.956;5.320;2023-04-24T13:02:27;12.70;99.90
29453;DHT22;16424;50.956;5.320;2023-04-24T13:04:53;12.70;99.90
29453;DHT22;16424;50.956;5.320;2023-04-24T13:07:19;12.90;99.90
29453;DHT22;16424;50.956;5.320;2023-04-24T13:09:48;13.00;99.90
29453;DHT22;16424;50.956;5.320;2023-04-24T13:12:14;13.30;99.90
29453;DHT22;16424;50.956;5.320;2023-04-24T13:14:40;13.70;99.90
29453;DHT22;16424;50.956;5.320;2023-04-24T13:17:06;13.80;99.90
29453;DHT22;16424;50.956;5.320;2023-04-24T13:19:40;13.80;99.90
29453;DHT22;16424;50.956;5.320;2023-04-24T13:22:08;13.70;99.90
29453;DHT22;16424;50.956;5.320;2023-04-24T13:24:34;13.50;99.90
29453;DHT22;16424;50.956;5.320;2023-04-24T13:27:00;13.70;99.90
29453;DHT22;16424;50.956;5.320;2023-04-24T13:29:27;13.70;99.90
29453;DHT22;16424;50.956;5.320;2023-04-24T13:31:53;13.90;99.90
29453;DHT22;16424;50.956;5.320;2023-04-24T13:34:25;13.70;99.90
29453;DHT22;16424;50.956;5.320;2023-04-24T13:36:53;14.10;99.90
29453;DHT22;16424;50.956;5.320;2023-04-24T13:39:19;14.40;99.90
29453;DHT22;16424;50.956;5.320;2023-04-24T13:41:45;14.50;99.90
29453;DHT22;16424;50.956;5.320;2023-04-24T13:44:13;14.50;99.90
29453;DHT22;16424;50.956;5.320;2023-04-24T13:46:39;14.40;99.90
29453;DHT22;16424;50.956;5.320;2023-04-24T13:49:04;14.30;99.90
29453;DHT22;16424;50.956;5.320;2023-04-24T13:51:30;13.90;99.90
29453;DHT22;16424;50.956;5.320;2023-04-24T13:53:56;13.60;99.90
29453;DHT22;16424;50.956;5.320;2023-04-24T13:56:22;13.60;99.90
29453;DHT22;16424;50.956;5.320;2023-04-24T13:58:48;14.00;99.90
29453;DHT22;16424;50.956;5.320;2023-04-24T14:01:14;14.50;99.90
29453;DHT22;16424;50.956;5.320;2023-04-24T14:03:41;14.50;99.90
29453;DHT22;16424;50.956;5.320;2023-04-24T14:06:07;14.90;99.90
29453;DHT22;16424;50.956;5.320;2023-04-24T14:08:32;15.10;99.90
29453;DHT22;16424;50.956;5.320;2023-04-24T14:10:58;15.10;99.90
29453;DHT22;16424;50.956;5.320;2023-04-24T14:13:24;15.10;99.90
29453;DHT22;16424;50.956;5.320;2023-04-24T14:15:51;14.70;99.90
29453;DHT22;16424;50.956;5.320;2023-04-24T14:18:18;13.90;99.90
29453;DHT22;16424;50.956;5.320;2023-04-24T14:20:44;13.70;99.90
29453;DHT22;16424;50.956;5.320;2023-04-24T14:23:09;13.50;99.90
29453;DHT22;16424;50.956;5.320;2023-04-24T14:25:35;13.40;99.90
29453;DHT22;16424;50.956;5.320;2023-04-24T14:28:01;13.30;99.90
29453;DHT22;16424;50.956;5.320;2023-04-24T14:30:26;13.40;99.90
29453;DHT22;16424;50.956;5.320;2023-04-24T14:32:52;13.50;99.90
29453;DHT22;16424;50.956;5.320;2023-04-24T14:35:17;13.70;99.90
29453;DHT22;16424;50.956;5.320;2023-04-24T14:37:43;13.80;99.90
29453;DHT22;16424;50.956;5.320;2023-04-24T14:40:09;13.70;99.90
29453;DHT22;16424;50.956;5.320;2023-04-24T14:42:35;13.70;99.90
29453;DHT22;16424;50.956;5.320;2023-04-24T14:45:01;14.00;99.90
29453;DHT22;16424;50.956;5.320;2023-04-24T14:47:27;14.00;99.90
29453;DHT22;16424;50.956;5.320;2023-04-24T14:49:53;14.20;99.90
29453;DHT22;16424;50.956;5.320;2023-04-24T14:52:18;14.40;99.90
29453;DHT22;16424;50.956;5.320;2023-04-24T14:54:44;14.60;99.90
29453;DHT22;16424;50.956;5.320;2023-04-24T14:57:10;14.60;99.90
29453;DHT22;16424;50.956;5.320;2023-04-24T14:59:36;14.70;99.90
29453;DHT22;16424;50.956;5.320;2023-04-24T15:02:01;14.70;99.90
29453;DHT22;16424;50.956;5.320;2023-04-24T15:04:28;14.70;99.90
29453;DHT22;16424;50.956;5.320;2023-04-24T15:06:54;14.60;99.90
29453;DHT22;16424;50.956;5.320;2023-04-24T15:09:21;14.40;99.90
29453;DHT22;16424;50.956;5.320;2023-04-24T15:11:48;14.20;99.90
29453;DHT22;16424;50.956;5.320;2023-04-24T15:14:14;14.20;99.90
29453;DHT22;16424;50.956;5.320;2023-04-24T15:16:40;14.30;99.90
29453;DHT22;16424;50.956;5.320;2023-04-24T15:19:06;14.20;99.90
29453;DHT22;16424;50.956;5.320;2023-04-24T15:21:31;14.20;99.90
29453;DHT22;16424;50.956;5.320;2023-04-24T15:23:57;14.10;99.90
29453;DHT22;16424;50.956;5.320;2023-04-24T15:26:23;13.80;99.90
29453;DHT22;16424;50.956;5.320;2023-04-24T15:28:49;13.80;99.90
29453;DHT22;16424;50.956;5.320;2023-04-24T15:31:17;13.90;99.90
29453;DHT22;16424;50.956;5.320;2023-04-24T15:33:42;14.00;99.90
29453;DHT22;16424;50.956;5.320;2023-04-24T15:36:08;14.10;99.90
29453;DHT22;16424;50.956;5.320;2023-04-24T15:38:34;13.70;99.90
29453;DHT22;16424;50.956;5.320;2023-04-24T15:41:00;13.50;99.90
29453;DHT22;16424;50.956;5.320;2023-04-24T15:43:26;13.40;99.90
29453;DHT22;16424;50.956;5.320;2023-04-24T15:45:51;13.10;99.90
29453;DHT22;16424;50.956;5.320;2023-04-24T15:48:18;13.10;99.90
29453;DHT22;16424;50.956;5.320;2023-04-24T15:50:44;13.00;99.90
29453;DHT22;16424;50.956;5.320;2023-04-24T15:53:09;12.80;99.90
29453;DHT22;16424;50.956;5.320;2023-04-24T15:55:35;12.90;99.90